sensor_id;sensor_type;location;lat;lon;timestamp;P1;durP1;ratioP1;P2;durP2;ratioP2
12165;SDS011;6146;48.128;11.476;2023-07-02T00:01:46;2.97;;;2.77;;
12165;SDS011;6146;48.128;11.476;2023-07-02T00:04:12;3.73;;;2.60;;
12165;SDS011;6146;48.128;11.476;2023-07-02T00:06:41;3.00;;;2.70;;
12165;SDS011;6146;48.128;11.476;2023-07-02T00:09:10;2.97;;;2.67;;
12165;SDS011;6146;48.128;11.476;2023-07-02T00:11:40;2.60;;;2.40;;
12165;SDS011;6146;48.128;11.476;2023-07-02T00:14:07;2.97;;;2.70;;
12165;SDS011;6146;48.128;11.476;2023-07-02T00:16:34;3.77;;;2.80;;
12165;SDS011;6146;48.128;11.476;2023-07-02T00:19:02;4.93;;;3.00;;
12165;SDS011;6146;48.128;11.476;2023-07-02T00:21:28;3.80;;;2.63;;
12165;SDS011;6146;48.128;11.476;2023-07-02T00:23:54;3.03;;;2.70;;
12165;SDS011;6146;48.128;11.476;2023-07-02T00:26:26;3.20;;;2.87;;
12165;SDS011;6146;48.128;11.476;2023-07-02T00:28:53;3.03;;;2.73;;
12165;SDS011;6146;48.128;11.476;2023-07-02T00:31:19;3.00;;;2.70;;
12165;SDS011;6146;48.128;11.476;2023-07-02T00:33:45;3.60;;;2.60;;
12165;SDS011;6146;48.128;11.476;2023-07-02T00:36:12;3.07;;;2.53;;
12165;SDS011;6146;48.128;11.476;2023-07-02T00:38:40;2.17;;;1.97;;
12165;SDS011;6146;48.128;11.476;2023-07-02T00:41:07;2.77;;;2.40;;
12165;SDS011;6146;48.128;11.476;2023-07-02T00:43:33;2.93;;;1.90;;
12165;SDS011;6146;48.128;11.476;2023-07-02T00:45:59;2.80;;;2.30;;
12165;SDS011;6146;48.128;11.476;2023-07-02T00:48:24;4.10;;;2.20;;
12165;SDS011;6146;48.128;11.476;2023-07-02T00:50:50;4.27;;;2.10;;
12165;SDS011;6146;48.128;11.476;2023-07-02T00:53:16;2.40;;;2.03;;
12165;SDS011;6146;48.128;11.476;2023-07-02T00:55:42;2.20;;;1.93;;
12165;SDS011;6146;48.128;11.476;2023-07-02T00:58:08;2.27;;;2.00;;
12165;SDS011;6146;48.128;11.476;2023-07-02T01:00:34;2.33;;;2.00;;
12165;SDS011;6146;48.128;11.476;2023-07-02T01:03:00;1.80;;;1.70;;
12165;SDS011;6146;48.128;11.476;2023-07-02T01:05:26;4.47;;;1.80;;
12165;SDS011;6146;48.128;11.476;2023-07-02T01:07:57;3.03;;;2.00;;
12165;SDS011;6146;48.128;11.476;2023-07-02T01:10:22;2.10;;;1.90;;
12165;SDS011;6146;48.128;11.476;2023-07-02T01:12:48;2.90;;;2.07;;
12165;SDS011;6146;48.128;11.476;2023-07-02T01:15:14;1.77;;;1.67;;
12165;SDS011;6146;48.128;11.476;2023-07-02T01:17:40;2.17;;;1.90;;
12165;SDS011;6146;48.128;11.476;2023-07-02T01:20:07;2.73;;;1.80;;
12165;SDS011;6146;48.128;11.476;2023-07-02T01:22:34;2.40;;;1.77;;
12165;SDS011;6146;48.128;11.476;2023-07-02T01:25:00;2.40;;;2.00;;
12165;SDS011;6146;48.128;11.476;2023-07-02T01:27:29;2.00;;;1.80;;
12165;SDS011;6146;48.128;11.476;2023-07-02T01:29:55;2.03;;;1.80;;
12165;SDS011;6146;48.128;11.476;2023-07-02T01:32:21;1.90;;;1.70;;
12165;SDS011;6146;48.128;11.476;2023-07-02T01:34:47;1.90;;;1.70;;
12165;SDS011;6146;48.128;11.476;2023-07-02T01:37:14;1.80;;;1.70;;
12165;SDS011;6146;48.128;11.476;2023-07-02T01:39:43;1.73;;;1.63;;
12165;SDS011;6146;48.128;11.476;2023-07-02T01:42:09;2.03;;;1.83;;
12165;SDS011;6146;48.128;11.476;2023-07-02T01:44:36;2.87;;;2.07;;
12165;SDS011;6146;48.128;11.476;2023-07-02T01:47:02;1.80;;;1.70;;
12165;SDS011;6146;48.128;11.476;2023-07-02T01:49:28;2.10;;;1.90;;
12165;SDS011;6146;48.128;11.476;2023-07-02T01:51:54;1.90;;;1.70;;
12165;SDS011;6146;48.128;11.476;2023-07-02T01:54:21;2.10;;;1.83;;
12165;SDS011;6146;48.128;11.476;2023-07-02T01:56:48;2.23;;;2.03;;
12165;SDS011;6146;48.128;11.476;2023-07-02T01:59:14;2.00;;;1.80;;
12165;SDS011;6146;48.128;11.476;2023-07-02T02:01:39;1.93;;;1.80;;
12165;SDS011;6146;48.128;11.476;2023-07-02T02:04:06;2.50;;;2.17;;
12165;SDS011;6146;48.128;11.476;2023-07-02T02:06:32;2.20;;;2.00;;
12165;SDS011;6146;48.128;11.476;2023-07-02T02:08:58;4.43;;;2.10;;
12165;SDS011;6146;48.128;11.476;2023-07-02T02:11:24;2.30;;;1.80;;
12165;SDS011;6146;48.128;11.476;2023-07-02T02:13:49;2.10;;;1.90;;
12165;SDS011;6146;48.128;11.476;2023-07-02T02:16:15;2.60;;;2.20;;
12165;SDS011;6146;48.128;11.476;2023-07-02T02:18:41;2.67;;;2.00;;
12165;SDS011;6146;48.128;11.476;2023-07-02T02:21:06;2.07;;;1.87;;
12165;SDS011;6146;48.128;11.476;2023-07-02T02:23:32;2.40;;;2.20;;
12165;SDS011;6146;48.128;11.476;2023-07-02T02:25:58;2.47;;;2.00;;
12165;SDS011;6146;48.128;11.476;2023-07-02T02:28:23;2.57;;;1.90;;
12165;SDS011;6146;48.128;11.476;2023-07-02T02:30:49;2.30;;;2.10;;
12165;SDS011;6146;48.128;11.476;2023-07-02T02:33:14;1.80;;;1.70;;
12165;SDS011;6146;48.128;11.476;2023-07-02T02:35:40;2.40;;;2.20;;
12165;SDS011;6146;48.128;11.476;2023-07-02T02:38:05;2.30;;;2.10;;
12165;SDS011;6146;48.128;11.476;2023-07-02T02:40:31;2.47;;;2.27;;
12165;SDS011;6146;48.128;11.476;2023-07-02T02:42:56;2.30;;;1.80;;
12165;SDS011;6146;48.128;11.476;2023-07-02T02:45:22;2.00;;;1.80;;
12165;SDS011;6146;48.128;11.476;2023-07-02T02:47:48;2.10;;;1.90;;
12165;SDS011;6146;48.128;11.476;2023-07-02T02:50:13;2.00;;;1.90;;
12165;SDS011;6146;48.128;11.476;2023-07-02T02:52:39;2.20;;;2.00;;
12165;SDS011;6146;48.128;11.476;2023-07-02T02:55:05;2.07;;;1.87;;
12165;SDS011;6146;48.128;11.476;2023-07-02T02:57:33;2.10;;;1.90;;
12165;SDS011;6146;48.128;11.476;2023-07-02T02:59:58;2.13;;;1.87;;
12165;SDS011;6146;48.128;11.476;2023-07-02T03:02:24;2.10;;;1.90;;
12165;SDS011;6146;48.128;11.476;2023-07-02T03:04:50;1.93;;;1.80;;
12165;SDS011;6146;48.128;11.476;2023-07-02T03:07:15;2.10;;;1.90;;
12165;SDS011;6146;48.128;11.476;2023-07-02T03:09:41;2.40;;;2.20;;
12165;SDS011;6146;48.128;11.476;2023-07-02T03:12:07;2.30;;;2.10;;
12165;SDS011;6146;48.128;11.476;2023-07-02T03:14:33;2.73;;;2.10;;
12165;SDS011;6146;48.128;11.476;2023-07-02T03:16:58;2.40;;;2.07;;
12165;SDS011;6146;48.128;11.476;2023-07-02T03:19:24;2.73;;;2.30;;
12165;SDS011;6146;48.128;11.476;2023-07-02T03:21:50;2.57;;;2.37;;
12165;SDS011;6146;48.128;11.476;2023-07-02T03:24:16;3.07;;;2.57;;
12165;SDS011;6146;48.128;11.476;2023-07-02T03:26:42;4.13;;;2.90;;
12165;SDS011;6146;48.128;11.476;2023-07-02T03:29:08;3.87;;;2.70;;
12165;SDS011;6146;48.128;11.476;2023-07-02T03:31:34;2.90;;;2.60;;
12165;SDS011;6146;48.128;11.476;2023-07-02T03:34:03;3.07;;;2.47;;
12165;SDS011;6146;48.128;11.476;2023-07-02T03:36:32;4.27;;;3.00;;
12165;SDS011;6146;48.128;11.476;2023-07-02T03:38:58;4.30;;;3.10;;
12165;SDS011;6146;48.128;11.476;2023-07-02T03:41:23;3.57;;;3.00;;
12165;SDS011;6146;48.128;11.476;2023-07-02T03:43:49;4.57;;;3.20;;
12165;SDS011;6146;48.128;11.476;2023-07-02T03:46:14;4.20;;;3.10;;
12165;SDS011;6146;48.128;11.476;2023-07-02T03:48:40;3.83;;;3.40;;
12165;SDS011;6146;48.128;11.476;2023-07-02T03:51:06;4.67;;;3.67;;
12165;SDS011;6146;48.128;11.476;2023-07-02T03:53:31;3.33;;;3.03;;
12165;SDS011;6146;48.128;11.476;2023-07-02T03:55:57;3.20;;;2.90;;
12165;SDS011;6146;48.128;11.476;2023-07-02T03:58:22;3.87;;;3.10;;
12165;SDS011;6146;48.128;11.476;2023-07-02T04:00:48;4.20;;;3.40;;
12165;SDS011;6146;48.128;11.476;2023-07-02T04:03:17;3.83;;;3.10;;
12165;SDS011;6146;48.128;11.476;2023-07-02T04:05:43;4.03;;;3.63;;
12165;SDS011;6146;48.128;11.476;2023-07-02T04:08:09;4.17;;;3.77;;
12165;SDS011;6146;48.128;11.476;2023-07-02T04:10:35;3.77;;;3.33;;
12165;SDS011;6146;48.128;11.476;2023-07-02T04:13:00;3.90;;;3.47;;
12165;SDS011;6146;48.128;11.476;2023-07-02T04:15:26;4.83;;;3.40;;
12165;SDS011;6146;48.128;11.476;2023-07-02T04:17:52;4.47;;;3.50;;
12165;SDS011;6146;48.128;11.476;2023-07-02T04:20:18;3.77;;;3.33;;
12165;SDS011;6146;48.128;11.476;2023-07-02T04:22:47;4.07;;;3.73;;
12165;SDS011;6146;48.128;11.476;2023-07-02T04:25:13;4.23;;;3.60;;
12165;SDS011;6146;48.128;11.476;2023-07-02T04:27:41;5.53;;;3.80;;
12165;SDS011;6146;48.128;11.476;2023-07-02T04:30:07;3.47;;;3.17;;
12165;SDS011;6146;48.128;11.476;2023-07-02T04:32:34;4.47;;;3.67;;
12165;SDS011;6146;48.128;11.476;2023-07-02T04:35:01;4.43;;;3.57;;
12165;SDS011;6146;48.128;11.476;2023-07-02T04:37:26;4.20;;;3.80;;
12165;SDS011;6146;48.128;11.476;2023-07-02T04:39:55;4.30;;;3.57;;
12165;SDS011;6146;48.128;11.476;2023-07-02T04:42:20;3.67;;;3.33;;
12165;SDS011;6146;48.128;11.476;2023-07-02T04:44:46;5.17;;;3.57;;
12165;SDS011;6146;48.128;11.476;2023-07-02T04:47:11;4.10;;;3.50;;
12165;SDS011;6146;48.128;11.476;2023-07-02T04:49:38;3.73;;;3.33;;
12165;SDS011;6146;48.128;11.476;2023-07-02T04:52:04;4.00;;;3.47;;
12165;SDS011;6146;48.128;11.476;2023-07-02T04:54:31;4.50;;;3.83;;
12165;SDS011;6146;48.128;11.476;2023-07-02T04:56:56;3.43;;;3.07;;
12165;SDS011;6146;48.128;11.476;2023-07-02T04:59:23;3.90;;;3.50;;
12165;SDS011;6146;48.128;11.476;2023-07-02T05:01:49;3.60;;;3.30;;
12165;SDS011;6146;48.128;11.476;2023-07-02T05:04:15;4.57;;;3.50;;
12165;SDS011;6146;48.128;11.476;2023-07-02T05:06:40;3.80;;;3.50;;
12165;SDS011;6146;48.128;11.476;2023-07-02T05:09:06;4.10;;;3.33;;
12165;SDS011;6146;48.128;11.476;2023-07-02T05:11:31;4.67;;;3.90;;
12165;SDS011;6146;48.128;11.476;2023-07-02T05:13:57;5.17;;;3.40;;
12165;SDS011;6146;48.128;11.476;2023-07-02T05:16:22;4.33;;;3.50;;
12165;SDS011;6146;48.128;11.476;2023-07-02T05:18:48;3.90;;;3.50;;
12165;SDS011;6146;48.128;11.476;2023-07-02T05:21:17;3.40;;;3.10;;
12165;SDS011;6146;48.128;11.476;2023-07-02T05:23:43;4.00;;;3.53;;
12165;SDS011;6146;48.128;11.476;2023-07-02T05:26:08;4.37;;;3.47;;
12165;SDS011;6146;48.128;11.476;2023-07-02T05:28:34;3.73;;;3.43;;
12165;SDS011;6146;48.128;11.476;2023-07-02T05:30:59;4.23;;;3.20;;
12165;SDS011;6146;48.128;11.476;2023-07-02T05:33:25;3.73;;;3.20;;
12165;SDS011;6146;48.128;11.476;2023-07-02T05:35:50;4.63;;;3.37;;
12165;SDS011;6146;48.128;11.476;2023-07-02T05:38:17;3.47;;;3.17;;
12165;SDS011;6146;48.128;11.476;2023-07-02T05:40:43;4.17;;;3.30;;
12165;SDS011;6146;48.128;11.476;2023-07-02T05:43:09;3.70;;;3.30;;
12165;SDS011;6146;48.128;11.476;2023-07-02T05:45:34;4.20;;;3.23;;
12165;SDS011;6146;48.128;11.476;2023-07-02T05:48:00;3.80;;;3.30;;
12165;SDS011;6146;48.128;11.476;2023-07-02T05:50:26;4.97;;;3.10;;
12165;SDS011;6146;48.128;11.476;2023-07-02T05:52:51;3.77;;;3.10;;
12165;SDS011;6146;48.128;11.476;2023-07-02T05:55:17;3.27;;;2.97;;
12165;SDS011;6146;48.128;11.476;2023-07-02T05:57:42;4.00;;;3.57;;
12165;SDS011;6146;48.128;11.476;2023-07-02T06:00:08;4.77;;;3.70;;
12165;SDS011;6146;48.128;11.476;2023-07-02T06:02:34;3.80;;;3.40;;
12165;SDS011;6146;48.128;11.476;2023-07-02T06:04:59;4.83;;;3.60;;
12165;SDS011;6146;48.128;11.476;2023-07-02T06:07:26;4.00;;;3.20;;
12165;SDS011;6146;48.128;11.476;2023-07-02T06:09:52;3.77;;;3.13;;
12165;SDS011;6146;48.128;11.476;2023-07-02T06:12:18;3.53;;;3.10;;
12165;SDS011;6146;48.128;11.476;2023-07-02T06:14:43;4.40;;;3.17;;
12165;SDS011;6146;48.128;11.476;2023-07-02T06:17:09;4.57;;;3.30;;
12165;SDS011;6146;48.128;11.476;2023-07-02T06:19:36;4.73;;;3.37;;
12165;SDS011;6146;48.128;11.476;2023-07-02T06:22:02;3.20;;;2.90;;
12165;SDS011;6146;48.128;11.476;2023-07-02T06:24:28;4.67;;;3.83;;
12165;SDS011;6146;48.128;11.476;2023-07-02T06:26:53;3.43;;;3.13;;
12165;SDS011;6146;48.128;11.476;2023-07-02T06:29:19;5.33;;;3.57;;
12165;SDS011;6146;48.128;11.476;2023-07-02T06:31:46;3.70;;;3.30;;
12165;SDS011;6146;48.128;11.476;2023-07-02T06:34:11;4.03;;;3.33;;
12165;SDS011;6146;48.128;11.476;2023-07-02T06:36:37;4.27;;;3.83;;
12165;SDS011;6146;48.128;11.476;2023-07-02T06:39:03;4.83;;;3.77;;
12165;SDS011;6146;48.128;11.476;2023-07-02T06:41:28;5.27;;;3.63;;
12165;SDS011;6146;48.128;11.476;2023-07-02T06:43:54;6.10;;;3.87;;
12165;SDS011;6146;48.128;11.476;2023-07-02T06:46:19;3.90;;;3.53;;
12165;SDS011;6146;48.128;11.476;2023-07-02T06:48:45;4.27;;;3.63;;
12165;SDS011;6146;48.128;11.476;2023-07-02T06:51:10;5.30;;;3.70;;
12165;SDS011;6146;48.128;11.476;2023-07-02T06:53:39;5.20;;;3.87;;
12165;SDS011;6146;48.128;11.476;2023-07-02T06:56:09;5.53;;;3.60;;
12165;SDS011;6146;48.128;11.476;2023-07-02T06:58:35;4.83;;;3.83;;
12165;SDS011;6146;48.128;11.476;2023-07-02T07:01:01;4.23;;;3.87;;
12165;SDS011;6146;48.128;11.476;2023-07-02T07:03:27;5.40;;;4.63;;
12165;SDS011;6146;48.128;11.476;2023-07-02T07:05:53;4.97;;;3.53;;
12165;SDS011;6146;48.128;11.476;2023-07-02T07:08:18;6.47;;;4.43;;
12165;SDS011;6146;48.128;11.476;2023-07-02T07:10:44;7.47;;;5.10;;
12165;SDS011;6146;48.128;11.476;2023-07-02T07:13:10;8.57;;;6.40;;
12165;SDS011;6146;48.128;11.476;2023-07-02T07:15:36;8.87;;;5.80;;
12165;SDS011;6146;48.128;11.476;2023-07-02T07:18:02;4.63;;;3.97;;
12165;SDS011;6146;48.128;11.476;2023-07-02T07:20:28;5.70;;;5.20;;
12165;SDS011;6146;48.128;11.476;2023-07-02T07:22:54;4.23;;;3.83;;
12165;SDS011;6146;48.128;11.476;2023-07-02T07:25:20;5.70;;;4.30;;
12165;SDS011;6146;48.128;11.476;2023-07-02T07:27:46;4.43;;;3.90;;
12165;SDS011;6146;48.128;11.476;2023-07-02T07:30:11;6.20;;;4.57;;
12165;SDS011;6146;48.128;11.476;2023-07-02T07:32:37;5.70;;;4.00;;
12165;SDS011;6146;48.128;11.476;2023-07-02T07:35:03;5.63;;;5.03;;
12165;SDS011;6146;48.128;11.476;2023-07-02T07:37:29;5.10;;;4.60;;
12165;SDS011;6146;48.128;11.476;2023-07-02T07:39:55;7.67;;;4.70;;
12165;SDS011;6146;48.128;11.476;2023-07-02T07:42:20;5.87;;;4.63;;
12165;SDS011;6146;48.128;11.476;2023-07-02T07:44:46;4.10;;;3.47;;
12165;SDS011;6146;48.128;11.476;2023-07-02T07:47:11;5.80;;;3.87;;
12165;SDS011;6146;48.128;11.476;2023-07-02T07:49:37;4.87;;;3.87;;
12165;SDS011;6146;48.128;11.476;2023-07-02T07:52:03;4.07;;;3.70;;
12165;SDS011;6146;48.128;11.476;2023-07-02T07:54:31;3.93;;;3.57;;
12165;SDS011;6146;48.128;11.476;2023-07-02T07:56:57;4.50;;;3.80;;
12165;SDS011;6146;48.128;11.476;2023-07-02T07:59:23;4.50;;;3.73;;
12165;SDS011;6146;48.128;11.476;2023-07-02T08:01:48;4.33;;;3.63;;
12165;SDS011;6146;48.128;11.476;2023-07-02T08:04:14;5.00;;;3.30;;
12165;SDS011;6146;48.128;11.476;2023-07-02T08:06:39;3.63;;;3.30;;
12165;SDS011;6146;48.128;11.476;2023-07-02T08:09:05;3.33;;;3.03;;
12165;SDS011;6146;48.128;11.476;2023-07-02T08:11:30;3.43;;;2.93;;
12165;SDS011;6146;48.128;11.476;2023-07-02T08:13:56;2.83;;;2.63;;
12165;SDS011;6146;48.128;11.476;2023-07-02T08:16:21;3.07;;;2.73;;
12165;SDS011;6146;48.128;11.476;2023-07-02T08:18:47;3.30;;;2.50;;
12165;SDS011;6146;48.128;11.476;2023-07-02T08:21:12;2.80;;;2.57;;
12165;SDS011;6146;48.128;11.476;2023-07-02T08:23:38;3.27;;;2.87;;
12165;SDS011;6146;48.128;11.476;2023-07-02T08:26:03;3.37;;;2.77;;
12165;SDS011;6146;48.128;11.476;2023-07-02T08:28:29;3.00;;;2.70;;
12165;SDS011;6146;48.128;11.476;2023-07-02T08:30:55;2.90;;;2.53;;
12165;SDS011;6146;48.128;11.476;2023-07-02T08:33:20;3.30;;;2.87;;
12165;SDS011;6146;48.128;11.476;2023-07-02T08:35:46;4.63;;;2.97;;
12165;SDS011;6146;48.128;11.476;2023-07-02T08:38:11;2.57;;;2.37;;
12165;SDS011;6146;48.128;11.476;2023-07-02T08:40:37;3.30;;;2.50;;
12165;SDS011;6146;48.128;11.476;2023-07-02T08:43:02;3.00;;;2.80;;
12165;SDS011;6146;48.128;11.476;2023-07-02T08:45:28;2.97;;;2.40;;
12165;SDS011;6146;48.128;11.476;2023-07-02T08:47:55;2.87;;;2.67;;
12165;SDS011;6146;48.128;11.476;2023-07-02T08:50:22;3.17;;;2.23;;
12165;SDS011;6146;48.128;11.476;2023-07-02T08:52:48;3.50;;;2.60;;
12165;SDS011;6146;48.128;11.476;2023-07-02T08:55:13;3.10;;;2.80;;
12165;SDS011;6146;48.128;11.476;2023-07-02T08:57:40;2.80;;;2.60;;
12165;SDS011;6146;48.128;11.476;2023-07-02T09:00:14;3.00;;;2.30;;
12165;SDS011;6146;48.128;11.476;2023-07-02T09:02:40;2.90;;;2.60;;
12165;SDS011;6146;48.128;11.476;2023-07-02T09:05:05;3.23;;;2.50;;
12165;SDS011;6146;48.128;11.476;2023-07-02T09:07:31;3.17;;;2.43;;
12165;SDS011;6146;48.128;11.476;2023-07-02T09:10:08;2.57;;;2.37;;
12165;SDS011;6146;48.128;11.476;2023-07-02T09:12:33;2.60;;;2.40;;
12165;SDS011;6146;48.128;11.476;2023-07-02T09:15:04;3.50;;;3.00;;
12165;SDS011;6146;48.128;11.476;2023-07-02T09:17:32;3.60;;;2.60;;
12165;SDS011;6146;48.128;11.476;2023-07-02T09:19:59;3.70;;;2.70;;
12165;SDS011;6146;48.128;11.476;2023-07-02T09:22:26;2.50;;;2.30;;
12165;SDS011;6146;48.128;11.476;2023-07-02T09:24:56;3.63;;;2.57;;
12165;SDS011;6146;48.128;11.476;2023-07-02T09:27:33;3.47;;;2.60;;
12165;SDS011;6146;48.128;11.476;2023-07-02T09:30:05;2.67;;;2.47;;
12165;SDS011;6146;48.128;11.476;2023-07-02T09:32:31;2.63;;;2.43;;
12165;SDS011;6146;48.128;11.476;2023-07-02T09:34:57;2.90;;;2.70;;
12165;SDS011;6146;48.128;11.476;2023-07-02T09:37:23;2.63;;;2.40;;
12165;SDS011;6146;48.128;11.476;2023-07-02T09:39:50;3.03;;;2.73;;
12165;SDS011;6146;48.128;11.476;2023-07-02T09:42:19;2.60;;;2.40;;
12165;SDS011;6146;48.128;11.476;2023-07-02T09:44:46;2.53;;;2.33;;
12165;SDS011;6146;48.128;11.476;2023-07-02T09:47:12;2.67;;;2.47;;
12165;SDS011;6146;48.128;11.476;2023-07-02T09:49:39;3.43;;;2.73;;
12165;SDS011;6146;48.128;11.476;2023-07-02T09:52:11;3.10;;;2.63;;
12165;SDS011;6146;48.128;11.476;2023-07-02T09:54:41;3.53;;;3.00;;
12165;SDS011;6146;48.128;11.476;2023-07-02T09:57:07;3.30;;;3.00;;
12165;SDS011;6146;48.128;11.476;2023-07-02T09:59:32;3.17;;;2.83;;
12165;SDS011;6146;48.128;11.476;2023-07-02T10:01:58;3.27;;;2.97;;
12165;SDS011;6146;48.128;11.476;2023-07-02T10:04:24;3.13;;;2.83;;
12165;SDS011;6146;48.128;11.476;2023-07-02T10:06:53;3.37;;;2.87;;
12165;SDS011;6146;48.128;11.476;2023-07-02T10:09:21;4.30;;;3.70;;
12165;SDS011;6146;48.128;11.476;2023-07-02T10:11:59;3.00;;;2.70;;
12165;SDS011;6146;48.128;11.476;2023-07-02T10:14:25;2.60;;;2.40;;
12165;SDS011;6146;48.128;11.476;2023-07-02T10:16:51;3.77;;;2.83;;
12165;SDS011;6146;48.128;11.476;2023-07-02T10:19:18;3.20;;;2.90;;
12165;SDS011;6146;48.128;11.476;2023-07-02T10:21:44;4.37;;;3.30;;
12165;SDS011;6146;48.128;11.476;2023-07-02T10:24:19;3.40;;;3.10;;
12165;SDS011;6146;48.128;11.476;2023-07-02T10:26:57;4.00;;;3.13;;
12165;SDS011;6146;48.128;11.476;2023-07-02T10:29:25;5.13;;;3.13;;
12165;SDS011;6146;48.128;11.476;2023-07-02T10:31:52;4.10;;;3.17;;
12165;SDS011;6146;48.128;11.476;2023-07-02T10:34:34;3.67;;;2.80;;
12165;SDS011;6146;48.128;11.476;2023-07-02T10:37:01;4.80;;;3.80;;
12165;SDS011;6146;48.128;11.476;2023-07-02T10:39:28;5.13;;;3.90;;
12165;SDS011;6146;48.128;11.476;2023-07-02T10:42:08;4.40;;;4.00;;
12165;SDS011;6146;48.128;11.476;2023-07-02T10:44:35;4.83;;;4.20;;
12165;SDS011;6146;48.128;11.476;2023-07-02T10:47:15;4.57;;;4.17;;
12165;SDS011;6146;48.128;11.476;2023-07-02T10:49:41;6.00;;;4.80;;
12165;SDS011;6146;48.128;11.476;2023-07-02T10:52:06;5.77;;;4.73;;
12165;SDS011;6146;48.128;11.476;2023-07-02T10:54:45;4.90;;;4.40;;
12165;SDS011;6146;48.128;11.476;2023-07-02T10:57:17;9.23;;;5.70;;
12165;SDS011;6146;48.128;11.476;2023-07-02T10:59:47;6.00;;;5.10;;
12165;SDS011;6146;48.128;11.476;2023-07-02T11:02:13;5.47;;;4.50;;
12165;SDS011;6146;48.128;11.476;2023-07-02T11:04:39;7.97;;;6.70;;
12165;SDS011;6146;48.128;11.476;2023-07-02T11:07:05;7.47;;;6.43;;
12165;SDS011;6146;48.128;11.476;2023-07-02T11:09:31;6.07;;;5.47;;
12165;SDS011;6146;48.128;11.476;2023-07-02T11:11:58;6.87;;;5.70;;
12165;SDS011;6146;48.128;11.476;2023-07-02T11:16:57;7.65;;;5.05;;
12165;SDS011;6146;48.128;11.476;2023-07-02T11:19:24;7.82;;;6.00;;
12165;SDS011;6146;48.128;11.476;2023-07-02T11:21:53;6.72;;;6.03;;
12165;SDS011;6146;48.128;11.476;2023-07-02T11:26:55;6.88;;;6.22;;
12165;SDS011;6146;48.128;11.476;2023-07-02T11:29:21;6.10;;;5.50;;
12165;SDS011;6146;48.128;11.476;2023-07-02T11:31:47;8.43;;;6.20;;
12165;SDS011;6146;48.128;11.476;2023-07-02T11:34:13;6.57;;;5.97;;
12165;SDS011;6146;48.128;11.476;2023-07-02T11:36:40;9.90;;;8.93;;
12165;SDS011;6146;48.128;11.476;2023-07-02T11:39:06;10.02;;;9.02;;
12165;SDS011;6146;48.128;11.476;2023-07-02T11:41:44;8.87;;;7.97;;
12165;SDS011;6146;48.128;11.476;2023-07-02T11:44:10;6.93;;;6.17;;
12165;SDS011;6146;48.128;11.476;2023-07-02T11:46:36;8.83;;;7.10;;
12165;SDS011;6146;48.128;11.476;2023-07-02T11:49:03;6.60;;;6.00;;
12165;SDS011;6146;48.128;11.476;2023-07-02T11:51:37;7.90;;;6.43;;
12165;SDS011;6146;48.128;11.476;2023-07-02T11:54:06;7.30;;;6.30;;
12165;SDS011;6146;48.128;11.476;2023-07-02T11:56:32;8.03;;;6.90;;
12165;SDS011;6146;48.128;11.476;2023-07-02T11:58:58;9.73;;;7.27;;
12165;SDS011;6146;48.128;11.476;2023-07-02T12:01:24;9.33;;;7.00;;
12165;SDS011;6146;48.128;11.476;2023-07-02T12:03:50;7.70;;;7.00;;
12165;SDS011;6146;48.128;11.476;2023-07-02T12:06:16;9.60;;;7.43;;
12165;SDS011;6146;48.128;11.476;2023-07-02T12:08:42;8.57;;;7.20;;
12165;SDS011;6146;48.128;11.476;2023-07-02T12:11:07;8.43;;;7.53;;
12165;SDS011;6146;48.128;11.476;2023-07-02T12:13:33;8.50;;;7.53;;
12165;SDS011;6146;48.128;11.476;2023-07-02T12:15:59;8.37;;;6.83;;
12165;SDS011;6146;48.128;11.476;2023-07-02T12:18:24;8.17;;;7.27;;
12165;SDS011;6146;48.128;11.476;2023-07-02T12:20:50;8.83;;;7.93;;
12165;SDS011;6146;48.128;11.476;2023-07-02T12:23:15;10.47;;;7.53;;
12165;SDS011;6146;48.128;11.476;2023-07-02T12:25:41;9.00;;;8.10;;
12165;SDS011;6146;48.128;11.476;2023-07-02T12:28:07;10.73;;;8.17;;
12165;SDS011;6146;48.128;11.476;2023-07-02T12:30:32;9.03;;;8.13;;
12165;SDS011;6146;48.128;11.476;2023-07-02T12:32:58;10.57;;;8.23;;
12165;SDS011;6146;48.128;11.476;2023-07-02T12:35:24;9.20;;;8.30;;
12165;SDS011;6146;48.128;11.476;2023-07-02T12:37:50;11.03;;;9.13;;
12165;SDS011;6146;48.128;11.476;2023-07-02T12:40:17;11.97;;;9.30;;
12165;SDS011;6146;48.128;11.476;2023-07-02T12:42:44;10.80;;;9.30;;
12165;SDS011;6146;48.128;11.476;2023-07-02T12:45:11;11.00;;;9.57;;
12165;SDS011;6146;48.128;11.476;2023-07-02T12:47:37;12.80;;;10.67;;
12165;SDS011;6146;48.128;11.476;2023-07-02T12:50:04;13.63;;;9.70;;
12165;SDS011;6146;48.128;11.476;2023-07-02T12:52:30;11.30;;;10.20;;
12165;SDS011;6146;48.128;11.476;2023-07-02T12:54:56;11.57;;;10.37;;
12165;SDS011;6146;48.128;11.476;2023-07-02T12:57:22;12.60;;;9.43;;
12165;SDS011;6146;48.128;11.476;2023-07-02T12:59:47;11.10;;;9.90;;
12165;SDS011;6146;48.128;11.476;2023-07-02T13:02:13;11.13;;;9.97;;
12165;SDS011;6146;48.128;11.476;2023-07-02T13:04:39;11.30;;;10.13;;
12165;SDS011;6146;48.128;11.476;2023-07-02T13:07:04;12.00;;;9.83;;
12165;SDS011;6146;48.128;11.476;2023-07-02T13:09:30;11.13;;;9.93;;
12165;SDS011;6146;48.128;11.476;2023-07-02T13:11:56;11.80;;;10.60;;
12165;SDS011;6146;48.128;11.476;2023-07-02T13:14:22;12.23;;;10.53;;
12165;SDS011;6146;48.128;11.476;2023-07-02T13:16:47;13.67;;;10.47;;
12165;SDS011;6146;48.128;11.476;2023-07-02T13:19:13;11.73;;;10.47;;
12165;SDS011;6146;48.128;11.476;2023-07-02T13:21:40;11.63;;;10.33;;
12165;SDS011;6146;48.128;11.476;2023-07-02T13:24:05;11.83;;;9.77;;
12165;SDS011;6146;48.128;11.476;2023-07-02T13:26:31;12.17;;;10.33;;
12165;SDS011;6146;48.128;11.476;2023-07-02T13:28:57;11.17;;;9.93;;
12165;SDS011;6146;48.128;11.476;2023-07-02T13:31:22;11.07;;;9.87;;
12165;SDS011;6146;48.128;11.476;2023-07-02T13:33:48;12.27;;;10.67;;
12165;SDS011;6146;48.128;11.476;2023-07-02T13:36:15;12.93;;;10.77;;
12165;SDS011;6146;48.128;11.476;2023-07-02T13:38:41;12.00;;;10.80;;
12165;SDS011;6146;48.128;11.476;2023-07-02T13:41:06;13.40;;;10.63;;
12165;SDS011;6146;48.128;11.476;2023-07-02T13:43:32;12.80;;;10.90;;
12165;SDS011;6146;48.128;11.476;2023-07-02T13:45:57;12.97;;;10.63;;
12165;SDS011;6146;48.128;11.476;2023-07-02T13:48:23;12.37;;;10.20;;
12165;SDS011;6146;48.128;11.476;2023-07-02T13:50:48;12.27;;;10.50;;
12165;SDS011;6146;48.128;11.476;2023-07-02T13:53:14;11.33;;;10.07;;
12165;SDS011;6146;48.128;11.476;2023-07-02T13:55:40;12.93;;;10.73;;
12165;SDS011;6146;48.128;11.476;2023-07-02T13:58:05;15.77;;;11.23;;
12165;SDS011;6146;48.128;11.476;2023-07-02T14:00:31;11.50;;;10.30;;
12165;SDS011;6146;48.128;11.476;2023-07-02T14:02:56;12.23;;;10.57;;
12165;SDS011;6146;48.128;11.476;2023-07-02T14:05:23;11.73;;;10.53;;
12165;SDS011;6146;48.128;11.476;2023-07-02T14:07:48;12.67;;;11.10;;
12165;SDS011;6146;48.128;11.476;2023-07-02T14:10:14;14.90;;;11.50;;
12165;SDS011;6146;48.128;11.476;2023-07-02T14:12:40;15.30;;;11.63;;
12165;SDS011;6146;48.128;11.476;2023-07-02T14:15:07;13.90;;;12.37;;
12165;SDS011;6146;48.128;11.476;2023-07-02T14:17:33;12.77;;;11.47;;
12165;SDS011;6146;48.128;11.476;2023-07-02T14:19:59;12.70;;;11.30;;
12165;SDS011;6146;48.128;11.476;2023-07-02T14:22:24;14.63;;;11.90;;
12165;SDS011;6146;48.128;11.476;2023-07-02T14:24:50;14.70;;;12.73;;
12165;SDS011;6146;48.128;11.476;2023-07-02T14:27:16;13.03;;;11.70;;
12165;SDS011;6146;48.128;11.476;2023-07-02T14:29:41;14.40;;;12.90;;
12165;SDS011;6146;48.128;11.476;2023-07-02T14:32:07;13.77;;;12.37;;
12165;SDS011;6146;48.128;11.476;2023-07-02T14:34:33;14.73;;;12.10;;
12165;SDS011;6146;48.128;11.476;2023-07-02T14:36:58;14.33;;;12.13;;
12165;SDS011;6146;48.128;11.476;2023-07-02T14:39:24;13.70;;;12.23;;
12165;SDS011;6146;48.128;11.476;2023-07-02T14:41:50;14.37;;;11.77;;
12165;SDS011;6146;48.128;11.476;2023-07-02T14:44:16;16.00;;;13.27;;